Becida, Minnesota
Current Conditions -  °F | °C
As of 3:52 AM on Sunday 23 Nov 2014 (Local Time) from KBJI Reporting Station
Light Snow Light Snow  
Wind Chill: 27°   Ceiling: 300
Heat Index: 32°   Visibility: 0.5mi
Dew Point: 32°   Wind: 5mph
Humidity: 100%   Direction: 170°S
Pressure: 29.37"   Gusts: NA
Location:  47.545°N, 95.1206°W
Report Text: KBJI 230952Z AUTO 17004KT 1/2SM -SN OVC003 00/00 A2937 RMK AO2 T00000000
Loading
Personal Weather Stations






























Interactive Weather Map New forecast layout! Learn more

10-Day Weather Forecast

Advertisements
Track Severe Weather on mobile